»·PEaware :: AAL899 KPHX-KLAX

AAL899 :: KPHX-KLAX

FLIGHT INFORMATION

Flight Status: Arrived
Operator:
American Airlines
More flights by this operator :: More flights under this callsign
Pilot: Andrew C. (28419)
Aircraft: AIRBUS A319
(A319)
More flights by this aircraft type
Origin: KPHX Phoenix Sky Harbor Intl
United States
Destination: KLAX Los Angeles Intl
United States
More flights between these airports :: More routes between these airports
Route: KEENS2 MESSI ESTWD HLYWD1
File this flight plan on PilotEdge
Remarks: RMK / SIMBRIEF
Altitude:
(Current/Filed)
38,000ft
Speed:
(Current/Filed)
445kts
Departed: 30-Oct-20 03:06 PM
Arrived: 30-Oct-20 04:08 PM
Distance/Time
Traveled:
321nm/1:02
Distance/Time
To Go:
Arrived

Flight Plot

Page will automatically refresh every two minutes.

Flight plan parsing failed; only flown route is shown


Map Options




Map Legend


Flown Route
Filed Route
Departure Airport
Arrival Airport
Navaid (VOR, NDB)
Fix

Horizontal Profiles

Position Reports

Time Latitude Longitude Heading Altitude Ground
Speed
30-Oct-20 14:36 33.436840 -112.001303 270 1144ft 0kts
30-Oct-20 14:37 33.436840 -112.001303 270 1144ft 0kts
30-Oct-20 14:38 33.436840 -112.001303 270 1144ft 0kts
30-Oct-20 14:39 33.436840 -112.001303 270 1144ft 0kts
30-Oct-20 14:40 33.436840 -112.001303 270 1144ft 0kts
30-Oct-20 14:41 33.436840 -112.001303 270 1144ft 0kts
30-Oct-20 14:42 33.436840 -112.001303 270 1144ft 0kts
30-Oct-20 14:43 33.436840 -112.001303 270 1144ft 0kts
30-Oct-20 14:44 33.436840 -112.001303 270 1144ft 0kts
30-Oct-20 14:45 33.436840 -112.001303 270 1144ft 0kts
30-Oct-20 14:46 33.436840 -112.001303 270 1144ft 0kts
30-Oct-20 14:47 33.436840 -112.001303 270 1144ft 0kts
30-Oct-20 14:48 33.436840 -112.001303 270 1144ft 0kts
30-Oct-20 14:49 33.436840 -112.001303 270 1144ft 0kts
30-Oct-20 14:50 33.436840 -112.001303 270 1144ft 0kts
30-Oct-20 14:51 33.436840 -112.001303 270 1144ft 0kts
30-Oct-20 14:52 33.436840 -112.001303 270 1144ft 0kts
30-Oct-20 14:53 33.436840 -112.001303 270 1144ft 0kts
30-Oct-20 14:54 33.436840 -112.000916 270 1144ft 2kts
30-Oct-20 14:55 33.436627 -112.000312 346 1144ft 2kts
30-Oct-20 14:56 33.436497 -112.000302 0 1144ft 0kts
30-Oct-20 14:57 33.436497 -112.000302 0 1144ft 0kts
30-Oct-20 14:58 33.437287 -112.000291 0 1144ft 7kts
30-Oct-20 14:59 33.439052 -112.001813 270 1144ft 11kts
30-Oct-20 15:00 33.439008 -112.006593 270 1144ft 16kts
30-Oct-20 15:01 33.439018 -112.012550 270 1144ft 19kts
30-Oct-20 15:02 33.439018 -112.019155 270 1144ft 20kts
30-Oct-20 15:03 33.439032 -112.026072 270 1144ft 21kts
30-Oct-20 15:04 33.440220 -112.029712 0 1144ft 10kts
30-Oct-20 15:05 33.440862 -112.017154 90 1144ft 140kts
30-Oct-20 15:06 33.439045 -111.961447 93 3504ft 181kts
30-Oct-20 15:07 33.435647 -111.890021 95 5768ft 250kts
30-Oct-20 15:08 33.385865 -111.845315 191 9319ft 255kts
30-Oct-20 15:09 33.353620 -111.910804 274 12650ft 264kts
30-Oct-20 15:10 33.363134 -112.004900 274 14748ft 310kts
30-Oct-20 15:11 33.377904 -112.106930 276 17807ft 316kts
30-Oct-20 15:12 33.393366 -112.211380 276 20425ft 325kts
30-Oct-20 15:13 33.409252 -112.319315 276 22735ft 335kts
30-Oct-20 15:14 33.425534 -112.430602 276 24803ft 344kts
30-Oct-20 15:15 33.442055 -112.544356 276 26681ft 351kts
30-Oct-20 15:16 33.451023 -112.661618 267 28245ft 358kts
30-Oct-20 15:17 33.455418 -112.782024 274 29797ft 368kts
30-Oct-20 15:18 33.487919 -112.900271 287 31173ft 381kts
30-Oct-20 15:19 33.529174 -113.018011 287 32354ft 388kts
30-Oct-20 15:20 33.571164 -113.138434 287 33397ft 395kts
30-Oct-20 15:21 33.613555 -113.260576 287 34335ft 401kts
30-Oct-20 15:22 33.656524 -113.384825 287 35145ft 407kts
30-Oct-20 15:23 33.700124 -113.511420 287 35877ft 413kts
30-Oct-20 15:24 33.743698 -113.638356 287 36780ft 412kts
30-Oct-20 15:25 33.787133 -113.765744 287 37525ft 413kts
30-Oct-20 15:26 33.830635 -113.893540 287 37995ft 414kts
30-Oct-20 15:27 33.874135 -114.021726 287 38001ft 414kts
30-Oct-20 15:28 33.911275 -114.151642 278 37991ft 409kts
30-Oct-20 15:29 33.934404 -114.285979 277 37974ft 409kts
30-Oct-20 15:30 33.957016 -114.420106 277 37966ft 409kts
30-Oct-20 15:31 33.979529 -114.554405 277 37965ft 409kts
30-Oct-20 15:32 34.001826 -114.688456 277 37965ft 409kts
30-Oct-20 15:33 34.024216 -114.824087 277 37965ft 414kts
30-Oct-20 15:34 34.046624 -114.960353 277 37966ft 415kts
30-Oct-20 15:35 34.068864 -115.096994 277 37966ft 416kts
30-Oct-20 15:36 34.091001 -115.233646 278 37965ft 417kts
30-Oct-20 15:38 34.113410 -115.371058 278 37965ft 418kts
30-Oct-20 15:39 34.135547 -115.508900 278 37966ft 419kts
30-Oct-20 15:40 34.155509 -115.646939 273 37966ft 418kts
30-Oct-20 15:41 34.154754 -115.786287 261 37966ft 415kts
30-Oct-20 15:42 34.141358 -115.924130 261 36436ft 413kts
30-Oct-20 15:43 34.127898 -116.061999 261 33664ft 419kts
30-Oct-20 15:44 34.114183 -116.201179 261 31093ft 416kts
30-Oct-20 15:45 34.100425 -116.337402 261 29020ft 401kts
30-Oct-20 15:46 34.086347 -116.468403 261 27241ft 388kts
30-Oct-20 15:47 34.072654 -116.595052 261 25450ft 375kts
30-Oct-20 15:48 34.061349 -116.718120 261 23704ft 363kts
30-Oct-20 15:49 34.050185 -116.837157 262 21989ft 353kts
30-Oct-20 15:50 34.036973 -116.953298 260 20201ft 347kts
30-Oct-20 15:51 34.022492 -117.067274 261 18440ft 341kts
30-Oct-20 15:52 34.009265 -117.179350 261 16659ft 336kts
30-Oct-20 15:52 33.998201 -117.271845 262 15133ft 334kts
30-Oct-20 15:54 33.983058 -117.399908 262 13079ft 328kts
30-Oct-20 15:54 33.974796 -117.489920 274 11985ft 309kts
30-Oct-20 15:56 33.992897 -117.602510 283 10740ft 280kts
30-Oct-20 15:57 34.005856 -117.694816 267 9744ft 280kts
30-Oct-20 15:58 33.997026 -117.786674 263 8410ft 273kts
30-Oct-20 15:58 33.989657 -117.861685 263 7390ft 269kts
30-Oct-20 15:59 33.980973 -117.950487 263 6265ft 264kts
30-Oct-20 16:00 33.972491 -118.037610 264 5311ft 260kts
30-Oct-20 16:01 33.964629 -118.121361 263 4350ft 244kts
30-Oct-20 16:02 33.956436 -118.199518 262 3092ft 218kts
30-Oct-20 16:03 33.949629 -118.264275 263 2042ft 169kts
30-Oct-20 16:04 33.944729 -118.311664 264 1270ft 129kts
30-Oct-20 16:05 33.940364 -118.354715 263 635ft 128kts
30-Oct-20 16:06 33.936141 -118.394734 263 114ft 83kts
30-Oct-20 16:07 33.936094 -118.405823 261 114ft 23kts
30-Oct-20 16:08 33.937702 -118.409110 353 114ft 0kts
30-Oct-20 16:09 33.937784 -118.409121 353 114ft 4kts
30-Oct-20 16:10 33.939671 -118.407599 54 113ft 2kts
30-Oct-20 16:11 33.939782 -118.407259 69 114ft 0kts

Navigation Log

Ident Type
Flight plan parsing failed, navigation log unavailable